Time;durP1;ratioP1;P1;durP2;ratioP2;P2;SDS_P1;SDS_P2;PMS_P1;PMS_P2;Temp;Humidity;BMP_temperature;BMP_pressure;BME280_temperature;BME280_humidity;BME280_pressure;Samples;Min_cycle;Max_cycle;Signal;HPM_P1;HPM_P2
2022/08/14 00:01:19;;;;;;;1123.35;999.90;;;26.30;67.10;;;;;;5062046;28;20464;-82
2022/08/14 00:03:46;;;;;;;1134.15;999.90;;;26.30;67.30;;;;;;5058924;28;20205;-82
2022/08/14 00:06:13;;;;;;;1131.35;999.90;;;26.30;67.40;;;;;;5065075;28;20580;-82
2022/08/14 00:08:39;;;;;;;1134.20;999.90;;;26.30;67.40;;;;;;5067219;28;20577;-82
2022/08/14 00:11:07;;;;;;;1130.80;999.90;;;26.20;67.40;;;;;;5060411;28;20199;-82
2022/08/14 00:13:36;;;;;;;1129.35;999.90;;;26.30;67.60;;;;;;5066795;28;20457;-82
2022/08/14 00:16:03;;;;;;;1134.90;999.90;;;26.20;67.60;;;;;;5061327;28;20198;-82
2022/08/14 00:18:30;;;;;;;1137.65;999.90;;;26.20;67.60;;;;;;5070760;28;20229;-82
2022/08/14 00:20:57;;;;;;;1123.45;999.90;;;26.20;67.80;;;;;;5063858;28;20577;-82
2022/08/14 00:23:24;;;;;;;1139.97;999.90;;;26.20;67.90;;;;;;5067350;28;20198;-82
2022/08/14 00:25:53;;;;;;;1121.22;999.90;;;26.20;68.00;;;;;;5057191;28;20716;-81
2022/08/14 00:28:25;;;;;;;1123.60;999.90;;;26.10;67.90;;;;;;5062377;28;20195;-81
2022/08/14 00:30:56;;;;;;;1129.75;999.90;;;26.10;68.10;;;;;;5069671;28;20206;-81
2022/08/14 00:33:23;;;;;;;1115.38;999.90;;;26.10;68.20;;;;;;5063854;28;20195;-81
2022/08/14 00:35:50;;;;;;;1123.82;999.90;;;26.10;68.30;;;;;;5065013;28;20673;-81
2022/08/14 00:38:17;;;;;;;1130.32;999.90;;;26.10;68.50;;;;;;5072923;28;20198;-81
2022/08/14 00:40:45;;;;;;;1117.63;999.90;;;26.10;68.40;;;;;;5060095;28;20198;-82
2022/08/14 00:43:12;;;;;;;1117.25;999.90;;;26.10;68.50;;;;;;5067166;28;20201;-81
2022/08/14 00:45:40;;;;;;;1126.90;999.90;;;26.00;68.60;;;;;;5058411;28;20298;-82
2022/08/14 00:48:07;;;;;;;1118.68;999.90;;;26.00;68.70;;;;;;5067937;28;20198;-82
2022/08/14 00:50:33;;;;;;;1128.75;999.90;;;26.00;68.70;;;;;;5056426;28;20646;-82
2022/08/14 00:53:01;;;;;;;1116.07;999.90;;;26.00;68.90;;;;;;5061313;28;20207;-81
2022/08/14 00:55:29;;;;;;;1121.60;999.90;;;26.00;68.90;;;;;;5065523;28;20201;-82
2022/08/14 01:00:40;;;;;;;1116.82;999.90;;;25.90;68.90;;;;;;5065446;28;20276;-82
2022/08/14 01:03:08;;;;;;;1110.25;999.90;;;25.90;69.10;;;;;;5068018;28;20196;-82
2022/08/14 01:05:35;;;;;;;1115.88;999.90;;;25.90;69.20;;;;;;5057703;28;20222;-82
2022/08/14 01:08:02;;;;;;;1122.03;999.90;;;25.90;69.20;;;;;;5063297;28;20198;-82
2022/08/14 01:10:51;;;;;;;1112.80;999.90;;;25.90;69.30;;;;;;5067632;28;20205;-81
2022/08/14 01:13:29;;;;;;;1120.05;999.90;;;25.80;69.30;;;;;;5062957;28;20202;-82
2022/08/14 01:15:59;;;;;;;1111.93;999.90;;;25.80;69.40;;;;;;5059434;28;20202;-82
2022/08/14 01:21:15;;;;;;;1120.93;999.90;;;25.80;69.50;;;;;;5057261;28;20314;-81
2022/08/14 01:23:55;;;;;;;1108.65;999.90;;;25.70;69.50;;;;;;5059071;28;20561;-82
2022/08/14 01:26:53;;;;;;;1107.45;999.90;;;25.70;69.70;;;;;;5060757;28;20222;-82
2022/08/14 01:29:20;;;;;;;1115.30;999.90;;;25.70;69.70;;;;;;5059678;28;20197;-81
2022/08/14 01:31:47;;;;;;;1108.28;999.90;;;25.70;69.80;;;;;;5066117;28;20210;-82
2022/08/14 01:34:14;;;;;;;1109.40;999.90;;;25.70;70.00;;;;;;5067422;28;20212;-81
2022/08/14 01:36:41;;;;;;;1117.45;999.90;;;25.70;70.10;;;;;;5062491;28;20574;-81
2022/08/14 01:39:12;;;;;;;1108.35;999.90;;;25.60;70.10;;;;;;5066185;28;20570;-82
2022/08/14 01:41:39;;;;;;;1105.63;999.90;;;25.70;70.30;;;;;;5063962;28;20190;-82
2022/08/14 01:44:11;;;;;;;1097.78;999.65;;;25.60;70.30;;;;;;5061747;28;20194;-81
2022/08/14 01:46:41;;;;;;;1115.38;999.90;;;25.60;70.40;;;;;;5065522;28;20219;-81
2022/08/14 01:49:10;;;;;;;1097.85;998.75;;;25.60;70.40;;;;;;5058573;28;20234;-81
2022/08/14 01:51:38;;;;;;;1106.75;999.90;;;25.60;70.50;;;;;;5063551;28;20206;-81
2022/08/14 01:54:08;;;;;;;1103.63;999.90;;;25.50;70.40;;;;;;5064409;28;20198;-81
2022/08/14 01:56:38;;;;;;;1105.80;999.90;;;25.50;70.50;;;;;;5068464;28;20213;-81
2022/08/14 01:59:06;;;;;;;1100.93;999.70;;;25.50;70.50;;;;;;5062249;28;20565;-81
2022/08/14 02:01:36;;;;;;;1098.78;999.13;;;25.50;70.60;;;;;;5063892;28;20197;-81
2022/08/14 02:04:03;;;;;;;1093.63;997.92;;;25.50;70.60;;;;;;5064033;28;20198;-81
2022/08/14 02:06:31;;;;;;;1102.97;999.90;;;25.50;70.70;;;;;;5070407;28;20704;-82
2022/08/14 02:08:59;;;;;;;1089.50;995.75;;;25.50;70.70;;;;;;5067177;28;20205;-82
2022/08/14 02:11:26;;;;;;;1102.15;999.90;;;25.40;70.60;;;;;;5059641;28;20226;-82
2022/08/14 02:13:59;;;;;;;1110.88;999.90;;;25.40;70.70;;;;;;5062948;28;20205;-82
2022/08/14 02:16:28;;;;;;;1100.75;999.63;;;25.40;70.80;;;;;;5068718;28;20199;-82
2022/08/14 02:18:57;;;;;;;1091.95;997.10;;;25.40;70.90;;;;;;5062892;28;20230;-82
2022/08/14 02:21:26;;;;;;;1096.93;999.45;;;25.40;71.00;;;;;;5067441;28;20295;-81
2022/08/14 02:23:55;;;;;;;1104.30;999.90;;;25.40;71.00;;;;;;5065520;28;20646;-82
2022/08/14 02:26:24;;;;;;;1091.50;996.70;;;25.30;71.00;;;;;;5069166;28;20227;-81
2022/08/14 02:28:52;;;;;;;1109.97;999.90;;;25.30;71.20;;;;;;5061623;28;20210;-82
2022/08/14 02:31:21;;;;;;;1099.93;999.65;;;25.30;71.20;;;;;;5064155;28;20199;-78
2022/08/14 02:33:48;;;;;;;1087.60;994.80;;;25.30;71.30;;;;;;5081278;28;20198;-79
2022/08/14 02:36:15;;;;;;;1087.18;994.67;;;25.30;71.50;;;;;;5071681;28;20199;-79
2022/08/14 02:38:43;;;;;;;1093.28;997.63;;;25.20;71.50;;;;;;5070298;28;20224;-81
2022/08/14 02:41:12;;;;;;;1104.63;999.90;;;25.30;71.60;;;;;;5077655;28;20290;-80
2022/08/14 02:43:40;;;;;;;1087.55;995.13;;;25.20;71.70;;;;;;5080564;28;20723;-80
2022/08/14 02:46:09;;;;;;;1102.45;999.90;;;25.20;71.70;;;;;;5078006;28;20249;-80
2022/08/14 02:48:39;;;;;;;1093.28;996.88;;;25.20;72.60;;;;;;5075727;28;20280;-81
2022/08/14 02:51:09;;;;;;;1091.30;996.83;;;25.20;72.00;;;;;;5086554;28;20717;-79
2022/08/14 02:53:38;;;;;;;1093.72;998.03;;;25.10;71.80;;;;;;5081320;28;20713;-80
2022/08/14 02:56:05;;;;;;;1097.40;998.25;;;25.10;72.00;;;;;;5073192;28;20199;-82
2022/08/14 02:58:36;;;;;;;1085.05;993.42;;;25.10;72.10;;;;;;5070164;28;20202;-82
2022/08/14 03:01:03;;;;;;;1072.32;982.45;;;25.10;72.20;;;;;;5057950;28;20565;-80
2022/08/14 03:03:30;;;;;;;1088.97;995.65;;;25.10;72.30;;;;;;5058138;28;20674;-80
2022/08/14 03:05:59;;;;;;;1083.57;992.55;;;25.10;72.40;;;;;;5060250;28;20228;-80
2022/08/14 03:08:30;;;;;;;1098.68;999.35;;;25.00;72.40;;;;;;5066207;28;20297;-80
2022/08/14 03:10:58;;;;;;;1100.88;999.17;;;25.00;72.50;;;;;;5061250;28;20248;-80
2022/08/14 03:13:24;;;;;;;1087.25;995.92;;;25.00;72.60;;;;;;5059550;28;20711;-79
2022/08/14 03:15:52;;;;;;;1084.85;993.30;;;25.00;72.80;;;;;;5065038;28;20638;-80
2022/08/14 03:18:20;;;;;;;1097.47;999.08;;;25.00;72.90;;;;;;5061798;28;20207;-80
2022/08/14 03:20:47;;;;;;;1078.80;988.95;;;24.90;72.80;;;;;;5056577;28;20268;-81
2022/08/14 03:23:16;;;;;;;1079.53;989.65;;;24.90;73.00;;;;;;5061928;28;20195;-80
2022/08/14 03:25:43;;;;;;;1085.18;994.35;;;24.90;73.40;;;;;;5063798;28;20531;-79
2022/08/14 03:28:11;;;;;;;1079.15;989.15;;;24.90;73.20;;;;;;5067269;28;20205;-79
2022/08/14 03:30:38;;;;;;;1091.28;998.08;;;24.90;73.30;;;;;;5065822;28;20665;-80
2022/08/14 03:33:05;;;;;;;1083.28;992.97;;;24.80;73.40;;;;;;5067899;28;20244;-79
2022/08/14 03:35:32;;;;;;;1078.95;989.03;;;24.80;73.70;;;;;;5060825;28;20285;-80
2022/08/14 03:38:08;;;;;;;1083.55;992.40;;;24.80;73.60;;;;;;5057355;28;20191;-79
2022/08/14 03:40:38;;;;;;;1082.00;991.35;;;24.80;74.60;;;;;;5065056;28;20194;-79
2022/08/14 03:43:05;;;;;;;1085.20;993.55;;;24.80;73.90;;;;;;5065682;28;20641;-80
2022/08/14 03:45:34;;;;;;;1078.28;988.25;;;24.80;74.00;;;;;;5060068;28;20203;-79
2022/08/14 03:48:02;;;;;;;1092.10;997.58;;;24.80;75.00;;;;;;5064151;28;20195;-79
2022/08/14 03:50:31;;;;;;;1077.60;987.97;;;24.70;74.10;;;;;;5059966;28;20244;-79
2022/08/14 03:52:59;;;;;;;1072.72;983.10;;;24.70;74.20;;;;;;5058988;28;20230;-79
2022/08/14 03:55:27;;;;;;;1078.32;988.45;;;24.70;74.20;;;;;;5060425;28;20198;-81
2022/08/14 03:57:55;;;;;;;1072.35;982.85;;;24.70;75.10;;;;;;5059090;28;20209;-80
2022/08/14 04:00:22;;;;;;;1066.85;977.50;;;24.70;74.60;;;;;;5064522;28;20205;-81
2022/08/14 04:02:49;;;;;;;1077.28;987.47;;;24.60;74.30;;;;;;5058034;28;20576;-81
2022/08/14 04:05:16;;;;;;;1072.55;982.95;;;24.60;74.50;;;;;;5066701;28;20565;-81
2022/08/14 04:07:42;;;;;;;1081.07;991.00;;;24.60;74.60;;;;;;5061874;28;20222;-80
2022/08/14 04:10:09;;;;;;;1068.85;979.25;;;24.60;74.70;;;;;;5060426;28;20206;-81
2022/08/14 04:12:36;;;;;;;1080.97;990.75;;;24.60;74.80;;;;;;5064216;28;20574;-81
2022/08/14 04:15:06;;;;;;;1061.93;972.30;;;24.60;75.00;;;;;;5061478;28;20197;-82
2022/08/14 04:17:33;;;;;;;1077.82;987.78;;;24.60;75.10;;;;;;5055129;28;20682;-80
2022/08/14 04:20:03;;;;;;;1082.38;991.80;;;24.50;74.90;;;;;;5063279;28;20638;-81
2022/08/14 04:22:30;;;;;;;1080.30;990.17;;;24.50;75.10;;;;;;5066124;28;20299;-80
2022/08/14 04:24:57;;;;;;;1080.55;990.53;;;24.50;75.10;;;;;;5061001;28;20206;-80
2022/08/14 04:27:26;;;;;;;1075.15;985.33;;;24.50;75.20;;;;;;5056326;28;20219;-80
2022/08/14 04:29:53;;;;;;;1079.22;989.28;;;24.50;76.10;;;;;;5059100;28;20199;-80
2022/08/14 04:32:24;;;;;;;1071.60;982.13;;;24.50;75.40;;;;;;5058772;28;20267;-82
2022/08/14 04:34:52;;;;;;;1060.60;971.38;;;24.50;75.50;;;;;;5060268;28;20314;-80
2022/08/14 04:45:36;;;;;;;1072.03;982.35;;;24.40;75.80;;;;;;5065925;28;20226;-81
2022/08/14 04:48:15;;;;;;;1065.13;975.65;;;24.40;76.00;;;;;;5066759;28;20214;-81
2022/08/14 04:50:44;;;;;;;1054.85;965.42;;;24.30;75.90;;;;;;5060439;28;20293;-81
2022/08/14 04:53:12;;;;;;;1062.88;973.20;;;24.30;76.00;;;;;;5063354;28;20194;-81
2022/08/14 04:55:41;;;;;;;1069.00;979.17;;;24.30;76.10;;;;;;5068431;28;20198;-81
2022/08/14 04:58:09;;;;;;;1061.18;971.92;;;24.30;76.20;;;;;;5053492;28;20645;-81
2022/08/14 05:00:38;;;;;;;1066.97;977.42;;;24.30;76.20;;;;;;5059016;28;20221;-81
2022/08/14 05:03:07;;;;;;;1076.60;986.78;;;24.30;76.40;;;;;;5058612;28;20198;-81
2022/08/14 05:05:34;;;;;;;1074.70;985.08;;;24.30;76.40;;;;;;5058291;28;20194;-81
2022/08/14 05:08:08;;;;;;;1050.60;961.85;;;24.30;76.60;;;;;;5060696;28;20218;-81
2022/08/14 05:10:36;;;;;;;1058.75;969.33;;;24.30;76.70;;;;;;5065911;28;20221;-81
2022/08/14 05:13:04;;;;;;;1069.60;979.85;;;24.30;76.70;;;;;;5055837;28;20191;-81
2022/08/14 05:15:35;;;;;;;1068.95;979.28;;;24.30;76.80;;;;;;5067689;28;20260;-81
2022/08/14 05:18:03;;;;;;;1061.75;972.55;;;24.20;77.70;;;;;;5062495;28;20202;-81
2022/08/14 05:20:32;;;;;;;1066.05;976.55;;;24.20;77.00;;;;;;5067137;28;20210;-80
2022/08/14 05:22:59;;;;;;;1044.65;956.10;;;24.20;77.10;;;;;;5061017;28;20614;-81
2022/08/14 05:25:26;;;;;;;1054.57;965.67;;;24.20;77.10;;;;;;5065305;28;20194;-81
2022/08/14 05:27:53;;;;;;;1060.15;971.15;;;24.20;77.10;;;;;;5061267;28;20245;-81
2022/08/14 05:30:20;;;;;;;1063.10;973.78;;;24.20;77.20;;;;;;5057521;28;20206;-81
2022/08/14 05:32:47;;;;;;;1059.88;970.53;;;24.20;77.30;;;;;;5066893;28;20656;-81
2022/08/14 05:35:14;;;;;;;1044.32;955.65;;;24.20;77.50;;;;;;5061932;28;20199;-82
2022/08/14 05:37:42;;;;;;;1061.85;972.53;;;24.20;77.70;;;;;;5063183;28;20684;-83
2022/08/14 05:40:09;;;;;;;1052.55;963.58;;;24.20;77.80;;;;;;5063624;28;20676;-82
2022/08/14 05:42:37;;;;;;;1063.28;974.08;;;24.20;77.90;;;;;;5063470;28;20668;-82
2022/08/14 05:45:06;;;;;;;1053.00;963.92;;;24.20;77.90;;;;;;5057540;28;20219;-82
2022/08/14 05:47:38;;;;;;;1041.03;952.60;;;24.30;77.70;;;;;;5068609;28;20225;-82
2022/08/14 05:50:10;;;;;;;1054.10;965.15;;;24.50;77.90;;;;;;5057274;28;20194;-82
2022/08/14 05:52:36;;;;;;;1047.38;958.75;;;24.60;77.20;;;;;;5068044;28;20202;-81
2022/08/14 05:55:07;;;;;;;1062.78;973.38;;;24.90;77.30;;;;;;5067732;28;20208;-82
2022/08/14 05:57:34;;;;;;;1081.25;990.88;;;25.10;76.80;;;;;;5065864;28;20197;-81
2022/08/14 06:00:01;;;;;;;1073.40;983.58;;;25.20;76.30;;;;;;5055861;28;20665;-82
2022/08/14 06:02:27;;;;;;;1095.55;998.47;;;25.40;75.80;;;;;;5057258;28;20202;-82
2022/08/14 06:04:54;;;;;;;1095.60;998.30;;;25.60;75.60;;;;;;5061082;28;20221;-82
2022/08/14 06:07:21;;;;;;;1109.88;999.90;;;25.80;75.80;;;;;;5056966;28;20219;-82
2022/08/14 06:09:47;;;;;;;1116.57;999.90;;;25.90;74.80;;;;;;5060353;28;20662;-82
2022/08/14 06:12:16;;;;;;;1103.03;999.90;;;26.00;74.40;;;;;;5064471;28;20202;-82
2022/08/14 06:14:42;;;;;;;1104.97;999.90;;;26.10;74.20;;;;;;5060434;28;20611;-82
2022/08/14 06:17:09;;;;;;;1127.57;999.90;;;26.20;74.00;;;;;;5052881;28;20657;-82
2022/08/14 06:19:36;;;;;;;1127.90;999.90;;;26.30;73.70;;;;;;5061662;28;20230;-80
2022/08/14 06:22:03;;;;;;;1133.32;999.90;;;26.40;73.50;;;;;;5063807;28;20190;-81
2022/08/14 06:24:30;;;;;;;1131.75;999.90;;;26.50;73.40;;;;;;5062851;28;20214;-82
2022/08/14 06:26:56;;;;;;;1125.85;999.90;;;26.60;73.20;;;;;;5056015;28;20263;-82
2022/08/14 06:29:24;;;;;;;1126.50;999.90;;;26.70;72.90;;;;;;5057797;28;20211;-80
2022/08/14 06:31:51;;;;;;;1146.55;999.90;;;26.90;73.10;;;;;;5063763;28;20909;-82
2022/08/14 06:34:18;;;;;;;1138.67;999.90;;;27.00;72.40;;;;;;5060953;28;20202;-82
2022/08/14 06:36:45;;;;;;;1141.10;999.90;;;27.00;72.00;;;;;;5065213;28;20841;-82
2022/08/14 06:39:11;;;;;;;1139.00;999.90;;;27.10;71.70;;;;;;5059936;28;20457;-82
2022/08/14 06:41:38;;;;;;;1158.37;999.90;;;27.20;71.60;;;;;;5061929;28;20458;-81
2022/08/14 06:44:05;;;;;;;1150.60;999.90;;;27.30;71.50;;;;;;5058879;28;20451;-81
2022/08/14 06:46:33;;;;;;;1151.17;999.90;;;27.40;71.30;;;;;;5058273;28;20462;-82
2022/08/14 06:49:01;;;;;;;1152.13;999.90;;;27.40;71.10;;;;;;5059399;28;20492;-80
2022/08/14 06:51:28;;;;;;;1157.03;999.90;;;27.50;70.90;;;;;;5056524;28;20564;-81
2022/08/14 06:53:55;;;;;;;1162.23;999.90;;;27.60;70.70;;;;;;5062058;28;20468;-82
2022/08/14 06:56:23;;;;;;;1160.60;999.90;;;27.70;70.60;;;;;;5068392;28;20555;-82
2022/08/14 06:58:50;;;;;;;1172.03;999.90;;;27.80;70.30;;;;;;5068574;28;20939;-80
2022/08/14 07:06:48;;;;;;;1171.87;999.90;;;28.00;69.70;;;;;;5062751;28;20459;-82
2022/08/14 07:09:15;;;;;;;1183.40;999.90;;;28.10;69.40;;;;;;5058627;28;20825;-82
2022/08/14 07:11:42;;;;;;;1175.03;999.90;;;28.20;69.40;;;;;;5063544;28;20815;-81
2022/08/14 07:14:09;;;;;;;1174.53;999.90;;;28.20;69.20;;;;;;5058818;28;20872;-82
2022/08/14 07:16:36;;;;;;;1172.77;999.90;;;28.30;69.00;;;;;;5056867;28;20469;-82
2022/08/14 07:19:04;;;;;;;1176.57;999.90;;;28.40;68.90;;;;;;5053067;28;20506;-81
2022/08/14 07:21:31;;;;;;;1172.77;999.90;;;28.40;68.80;;;;;;5059297;28;20463;-82
2022/08/14 07:23:58;;;;;;;1186.23;999.90;;;28.50;68.80;;;;;;5064197;28;20472;-81
2022/08/14 07:26:24;;;;;;;1179.57;999.90;;;28.60;68.90;;;;;;5057760;28;20436;-81
2022/08/14 07:28:51;;;;;;;1172.30;999.90;;;28.60;68.40;;;;;;5066647;28;20521;-81
2022/08/14 07:31:18;;;;;;;1187.60;999.90;;;28.60;68.30;;;;;;5067217;28;20460;-81
2022/08/14 07:33:47;;;;;;;1181.47;999.90;;;28.70;68.20;;;;;;5062159;28;20802;-80
2022/08/14 07:36:16;;;;;;;1187.80;999.90;;;28.70;68.20;;;;;;5060769;28;20460;-81
2022/08/14 07:38:43;;;;;;;1185.60;999.90;;;28.80;68.00;;;;;;5065115;28;20455;-80
2022/08/14 07:41:11;;;;;;;1199.97;999.90;;;28.90;68.20;;;;;;5063488;28;20456;-81
2022/08/14 07:43:39;;;;;;;1195.20;999.90;;;28.90;68.10;;;;;;5058899;28;20618;-82
2022/08/14 07:46:07;;;;;;;1191.13;999.90;;;28.90;67.80;;;;;;5066112;28;20464;-81
2022/08/14 07:48:39;;;;;;;1205.00;999.90;;;29.00;67.70;;;;;;5062222;28;20462;-81
2022/08/14 07:51:06;;;;;;;1196.70;999.90;;;29.10;67.50;;;;;;5067362;28;21014;-81
2022/08/14 07:53:34;;;;;;;1204.80;999.90;;;29.10;67.30;;;;;;5065109;28;20900;-81
2022/08/14 07:56:01;;;;;;;1200.27;999.90;;;29.20;67.20;;;;;;5064914;28;20929;-81
2022/08/14 07:58:29;;;;;;;1207.43;999.90;;;29.20;67.10;;;;;;5064082;28;20480;-81
2022/08/14 08:00:57;;;;;;;1206.50;999.90;;;29.30;67.10;;;;;;5062897;28;20463;-78
2022/08/14 08:03:26;;;;;;;1204.43;999.90;;;29.30;67.00;;;;;;5062484;28;20427;-79
2022/08/14 08:05:53;;;;;;;1208.27;999.90;;;29.30;67.10;;;;;;5058424;28;20462;-79
2022/08/14 08:08:21;;;;;;;1207.87;999.90;;;29.40;67.00;;;;;;5061721;28;20535;-79
2022/08/14 08:10:50;;;;;;;1198.97;999.90;;;29.40;66.90;;;;;;5061024;28;20432;-79
2022/08/14 08:13:20;;;;;;;1215.57;999.90;;;29.50;66.90;;;;;;5055811;28;20460;-79
2022/08/14 08:15:48;;;;;;;1216.30;999.90;;;29.50;66.70;;;;;;5068716;28;20452;-79
2022/08/14 08:18:17;;;;;;;1210.90;999.90;;;29.50;67.30;;;;;;5056519;28;20815;-80
2022/08/14 08:20:47;;;;;;;1208.00;999.90;;;29.60;66.70;;;;;;5056442;28;20914;-81
2022/08/14 08:23:15;;;;;;;1217.40;999.90;;;29.60;66.50;;;;;;5065472;28;20931;-80
2022/08/14 08:25:44;;;;;;;1215.93;999.90;;;29.60;66.40;;;;;;5057236;28;20785;-80
2022/08/14 08:28:14;;;;;;;1214.53;999.90;;;29.70;66.50;;;;;;5070770;28;20978;-81
2022/08/14 08:30:42;;;;;;;1209.80;999.90;;;29.70;66.50;;;;;;5065141;28;20502;-82
2022/08/14 08:33:10;;;;;;;1217.43;999.90;;;29.70;66.60;;;;;;5068678;28;20816;-81
2022/08/14 08:35:38;;;;;;;1208.07;999.90;;;29.70;66.70;;;;;;5056189;28;20440;-80
2022/08/14 08:38:08;;;;;;;1217.73;999.90;;;29.70;66.50;;;;;;5072660;28;20487;-81
2022/08/14 08:40:38;;;;;;;1217.00;999.90;;;29.80;66.60;;;;;;5071691;28;20426;-81
2022/08/14 08:43:06;;;;;;;1209.43;999.90;;;29.80;66.70;;;;;;5062247;28;20553;-80
2022/08/14 08:45:35;;;;;;;1222.23;999.90;;;29.80;66.50;;;;;;5057813;28;20845;-80
2022/08/14 08:48:03;;;;;;;1213.20;999.90;;;29.80;66.50;;;;;;5064203;28;20476;-81
2022/08/14 08:50:33;;;;;;;1217.17;999.90;;;29.80;66.60;;;;;;5059360;28;20431;-81
2022/08/14 08:53:02;;;;;;;1213.10;999.90;;;29.80;66.60;;;;;;5067402;28;20828;-80
2022/08/14 08:55:31;;;;;;;1223.27;999.90;;;29.80;66.70;;;;;;5062058;28;20460;-81
2022/08/14 08:58:00;;;;;;;1209.70;999.90;;;29.80;66.70;;;;;;5058911;28;20449;-81
2022/08/14 09:00:32;;;;;;;1223.40;999.90;;;29.80;66.80;;;;;;5057901;28;20435;-81
2022/08/14 09:03:06;;;;;;;1216.43;999.90;;;29.80;66.70;;;;;;5065240;28;20450;-82
2022/08/14 09:05:35;;;;;;;1224.67;999.90;;;29.80;66.80;;;;;;5067904;28;20451;-80
2022/08/14 09:08:16;;;;;;;1216.90;999.90;;;29.80;66.80;;;;;;5066482;28;20472;-81
2022/08/14 09:10:43;;;;;;;1214.50;999.90;;;29.80;66.80;;;;;;5061970;28;20436;-81
2022/08/14 09:13:11;;;;;;;1214.07;999.90;;;29.80;66.80;;;;;;5059761;28;20435;-82
2022/08/14 09:15:40;;;;;;;1219.23;999.90;;;29.80;66.80;;;;;;5065739;28;20441;-81
2022/08/14 09:18:09;;;;;;;1214.10;999.90;;;29.80;66.80;;;;;;5063628;28;20938;-81
2022/08/14 09:20:39;;;;;;;1220.63;999.90;;;29.80;67.00;;;;;;5056401;28;20439;-81
2022/08/14 09:23:07;;;;;;;1212.17;999.90;;;29.80;67.10;;;;;;5056955;28;20484;-81
2022/08/14 09:25:35;;;;;;;1220.47;999.90;;;29.70;67.10;;;;;;5065463;28;20527;-82
2022/08/14 09:28:02;;;;;;;1221.60;999.90;;;29.70;67.30;;;;;;5059246;28;20576;-81
2022/08/14 09:30:30;;;;;;;1219.80;999.90;;;29.70;67.30;;;;;;5060608;28;20439;-80
2022/08/14 09:33:29;;;;;;;1213.57;999.90;;;29.70;67.30;;;;;;5069586;28;20439;-81
2022/08/14 09:36:28;;;;;;;1213.30;999.90;;;29.70;67.40;;;;;;5062496;28;20446;-82
2022/08/14 09:39:04;;;;;;;1207.00;999.90;;;29.70;67.50;;;;;;5036098;28;20918;-81
2022/08/14 09:41:38;;;;;;;1209.23;999.90;;;29.60;67.50;;;;;;5059780;28;20518;-80
2022/08/14 09:44:09;;;;;;;1212.13;999.90;;;29.60;67.60;;;;;;5066280;28;20445;-82
2022/08/14 09:46:36;;;;;;;1216.17;999.90;;;29.60;67.80;;;;;;5062780;28;20423;-80
2022/08/14 09:49:06;;;;;;;1231.70;999.90;;;29.60;68.10;;;;;;5057700;28;20923;-80
2022/08/14 09:51:36;;;;;;;1222.33;999.90;;;29.60;68.10;;;;;;5061683;28;20938;-81
2022/08/14 09:54:08;;;;;;;1213.57;999.90;;;29.60;68.20;;;;;;5066726;28;20801;-81
2022/08/14 09:56:45;;;;;;;1207.90;999.90;;;29.50;68.30;;;;;;5056484;28;20449;-81
2022/08/14 09:59:14;;;;;;;1211.97;999.90;;;29.50;68.30;;;;;;5056189;28;20514;-81
2022/08/14 10:01:42;;;;;;;1200.93;999.90;;;29.50;68.30;;;;;;5054127;28;20527;-83
2022/08/14 10:04:20;;;;;;;1216.57;999.90;;;29.50;68.70;;;;;;5060706;28;20461;-81
2022/08/14 10:06:47;;;;;;;1204.50;999.90;;;29.50;68.40;;;;;;5067354;28;20435;-80
2022/08/14 10:09:14;;;;;;;1218.37;999.90;;;29.40;68.40;;;;;;5070396;28;21053;-80
2022/08/14 10:11:42;;;;;;;1207.20;999.90;;;29.40;68.50;;;;;;5060560;28;20412;-81
2022/08/14 10:14:16;;;;;;;1215.53;999.90;;;29.40;68.70;;;;;;5053840;28;20817;-81
2022/08/14 10:16:44;;;;;;;1200.67;999.90;;;29.40;68.70;;;;;;5061613;28;20431;-81
2022/08/14 10:19:13;;;;;;;1214.73;999.90;;;29.40;68.90;;;;;;5069516;28;20606;-80
2022/08/14 10:21:45;;;;;;;1213.77;999.90;;;29.40;69.00;;;;;;5068662;28;20418;-81
2022/08/14 10:24:22;;;;;;;1203.97;999.90;;;29.30;68.90;;;;;;5060389;28;20448;-81
2022/08/14 10:26:54;;;;;;;1204.40;999.90;;;29.30;68.90;;;;;;5067422;28;21062;-80
2022/08/14 10:29:31;;;;;;;1209.50;999.90;;;29.30;68.90;;;;;;5053160;28;20506;-81
2022/08/14 10:31:58;;;;;;;1195.30;999.90;;;29.30;69.00;;;;;;5061917;28;20415;-80
2022/08/14 10:34:31;;;;;;;1205.53;999.90;;;29.30;69.10;;;;;;5062577;28;20461;-81
2022/08/14 10:37:06;;;;;;;1193.20;999.90;;;29.30;69.00;;;;;;5062036;28;20827;-80
2022/08/14 10:39:35;;;;;;;1208.43;999.90;;;29.30;69.20;;;;;;5058810;28;20430;-80
2022/08/14 10:42:04;;;;;;;1202.03;999.90;;;29.20;69.00;;;;;;5058459;28;20470;-81
2022/08/14 10:44:34;;;;;;;1209.67;999.90;;;29.30;69.00;;;;;;5059363;28;20415;-81
2022/08/14 10:47:06;;;;;;;1201.50;999.90;;;29.30;69.10;;;;;;5063523;28;20465;-80
2022/08/14 10:49:34;;;;;;;1200.13;999.90;;;29.20;68.90;;;;;;5058746;28;20483;-81
2022/08/14 10:52:05;;;;;;;1194.13;999.90;;;29.20;69.80;;;;;;5065598;28;20456;-82
2022/08/14 10:54:37;;;;;;;1192.33;999.90;;;29.20;69.30;;;;;;5067739;28;20454;-80
2022/08/14 10:57:23;;;;;;;1199.37;999.90;;;29.20;69.20;;;;;;5052014;28;20443;-80
2022/08/14 10:59:51;;;;;;;1194.53;999.90;;;29.20;69.40;;;;;;5064965;28;20489;-81
2022/08/14 11:02:20;;;;;;;1201.47;999.90;;;29.10;69.30;;;;;;5059205;28;20435;-80
2022/08/14 11:04:59;;;;;;;1195.37;999.90;;;29.10;69.30;;;;;;5059646;28;20447;-81
2022/08/14 11:07:27;;;;;;;1199.37;999.90;;;29.10;69.30;;;;;;5066152;28;20439;-82
2022/08/14 11:09:56;;;;;;;1198.20;999.90;;;29.10;69.50;;;;;;5065235;28;20481;-80
2022/08/14 11:12:24;;;;;;;1198.63;999.90;;;29.10;69.50;;;;;;5060813;28;20802;-82
2022/08/14 11:14:55;;;;;;;1200.30;999.90;;;29.10;69.60;;;;;;5070050;28;20472;-81
2022/08/14 11:17:24;;;;;;;1198.20;999.90;;;29.10;69.50;;;;;;5058593;28;20536;-81
2022/08/14 11:19:55;;;;;;;1189.70;999.90;;;29.10;69.50;;;;;;5051980;28;20489;-80
2022/08/14 11:22:25;;;;;;;1199.93;999.90;;;29.10;69.50;;;;;;5055372;28;20432;-81
2022/08/14 11:24:55;;;;;;;1193.90;999.90;;;29.10;69.50;;;;;;5065963;28;20940;-82
2022/08/14 11:27:25;;;;;;;1194.47;999.90;;;29.10;69.60;;;;;;5057486;28;20428;-82
2022/08/14 11:29:55;;;;;;;1194.70;999.90;;;29.10;69.50;;;;;;5052990;28;20477;-82
2022/08/14 11:32:24;;;;;;;1203.20;999.90;;;29.10;69.40;;;;;;5064861;28;20446;-82
2022/08/14 11:34:52;;;;;;;1195.80;999.90;;;29.10;69.50;;;;;;5062685;28;20553;-81
2022/08/14 11:37:19;;;;;;;1206.60;999.90;;;29.10;69.60;;;;;;5064432;28;20472;-80
2022/08/14 11:39:47;;;;;;;1204.27;999.90;;;29.10;69.60;;;;;;5059191;28;20455;-80
2022/08/14 11:42:23;;;;;;;1201.27;999.90;;;29.00;69.60;;;;;;5058699;28;20493;-81
2022/08/14 11:44:51;;;;;;;1187.10;999.90;;;29.00;69.80;;;;;;5066808;28;20462;-80
2022/08/14 11:47:19;;;;;;;1197.03;999.90;;;29.00;69.80;;;;;;5067300;28;20452;-81
2022/08/14 11:49:47;;;;;;;1196.30;999.90;;;29.00;69.90;;;;;;5059494;28;20485;-80
2022/08/14 11:52:14;;;;;;;1187.10;999.90;;;28.90;70.00;;;;;;5073451;28;20977;-82
2022/08/14 11:54:41;;;;;;;1188.40;999.90;;;28.90;69.90;;;;;;5058234;28;20520;-80
2022/08/14 11:57:15;;;;;;;1192.80;999.90;;;29.00;69.90;;;;;;5067502;28;20803;-80
2022/08/14 11:59:43;;;;;;;1196.43;999.90;;;29.00;69.90;;;;;;5060591;28;20456;-80
2022/08/14 12:02:12;;;;;;;1183.47;999.90;;;28.90;70.00;;;;;;5059911;28;20452;-81
2022/08/14 12:04:49;;;;;;;1196.53;999.90;;;29.00;70.00;;;;;;5065296;28;20428;-80
2022/08/14 12:07:16;;;;;;;1189.50;999.90;;;29.00;70.10;;;;;;5065158;28;20978;-81
2022/08/14 12:09:44;;;;;;;1182.67;999.90;;;29.00;70.20;;;;;;5066690;28;20479;-81
2022/08/14 12:12:15;;;;;;;1188.33;999.90;;;29.00;70.10;;;;;;5068577;28;20431;-80
2022/08/14 12:14:52;;;;;;;1188.53;999.90;;;28.90;70.20;;;;;;5062012;28;20465;-81
2022/08/14 12:17:19;;;;;;;1193.87;999.90;;;28.90;70.20;;;;;;5060197;28;20471;-82
2022/08/14 12:19:51;;;;;;;1196.27;999.90;;;28.90;70.20;;;;;;5067942;28;20476;-81
2022/08/14 12:22:18;;;;;;;1188.30;999.90;;;28.90;70.20;;;;;;5057780;28;20452;-81
2022/08/14 12:24:50;;;;;;;1192.67;999.90;;;28.90;70.30;;;;;;5069359;28;20787;-82
2022/08/14 12:27:16;;;;;;;1194.80;999.90;;;28.90;70.40;;;;;;5068584;28;20464;-82